Time;durP1;ratioP1;P1;durP2;ratioP2;P2;SDS_P1;SDS_P2;PMS_P1;PMS_P2;Temp;Humidity;BMP_temperature;BMP_pressure;BME280_temperature;BME280_humidity;BME280_pressure;Samples;Min_cycle;Max_cycle;Signal;HPM_P1;HPM_P2
2022/12/06 00:01:13;;;;;;;108.68;52.08;;;;;;;7.22;99.22;100265.88;5033117;28;20054;-65
2022/12/06 00:03:39;;;;;;;107.65;49.97;;;;;;;7.21;99.02;100267.00;5033380;28;20080;-66
2022/12/06 00:06:14;;;;;;;93.63;48.60;;;;;;;7.27;99.57;100269.44;5013014;28;20045;-66
2022/12/06 00:08:40;;;;;;;102.40;47.47;;;;;;;7.39;98.42;100265.44;5033456;28;20080;-66
2022/12/06 00:11:11;;;;;;;100.28;48.92;;;;;;;7.48;97.88;100266.47;5031545;28;20049;-66
2022/12/06 00:13:38;;;;;;;102.30;48.58;;;;;;;7.52;97.41;100264.75;5033434;28;20029;-66
2022/12/06 00:16:06;;;;;;;92.55;47.05;;;;;;;7.58;97.55;100255.22;5011782;28;20069;-66
2022/12/06 00:18:33;;;;;;;86.60;44.70;;;;;;;7.65;96.67;100249.28;5014149;28;20475;-66
2022/12/06 00:21:32;;;;;;;91.55;47.40;;;;;;;7.75;96.33;100253.91;5013564;28;20021;-66
2022/12/06 00:24:00;;;;;;;96.32;47.70;;;;;;;7.78;95.94;100260.84;5027150;28;20029;-66
2022/12/06 00:26:26;;;;;;;99.15;51.35;;;;;;;7.79;95.55;100245.78;5032234;28;20021;-66
2022/12/06 00:28:54;;;;;;;93.90;50.03;;;;;;;7.83;95.64;100249.63;5014108;28;20068;-66
2022/12/06 00:31:21;;;;;;;98.00;50.60;;;;;;;7.87;94.97;100250.72;5032924;28;20022;-66
2022/12/06 00:33:47;;;;;;;93.60;48.38;;;;;;;7.85;94.80;100244.63;5031561;28;20404;-68
2022/12/06 00:36:24;;;;;;;89.03;47.45;;;;;;;7.83;94.82;100238.50;5013867;28;20040;-66
2022/12/06 00:38:50;;;;;;;89.75;49.00;;;;;;;7.66;95.27;100230.63;5033016;28;20064;-67
2022/12/06 00:41:21;;;;;;;80.78;45.70;;;;;;;7.58;95.91;100227.38;5032742;28;20034;-68
2022/12/06 00:43:48;;;;;;;93.88;46.78;;;;;;;7.61;95.79;100223.19;5013385;28;20022;-66
2022/12/06 00:46:17;;;;;;;88.85;47.35;;;;;;;7.74;95.37;100232.75;5031475;28;20025;-66
2022/12/06 00:48:43;;;;;;;84.07;43.90;;;;;;;7.78;94.74;100225.47;5031904;28;20111;-65
2022/12/06 00:51:09;;;;;;;88.25;45.47;;;;;;;7.82;94.47;100223.75;5028892;28;20620;-65
2022/12/06 00:53:35;;;;;;;89.65;44.55;;;;;;;7.87;93.89;100220.88;5014893;28;20030;-66
2022/12/06 00:56:01;;;;;;;87.28;44.85;;;;;;;7.80;93.79;100223.22;5032448;28;20531;-66
2022/12/06 00:58:26;;;;;;;84.70;45.90;;;;;;;7.77;94.19;100226.59;5032519;28;20021;-66
2022/12/06 01:00:52;;;;;;;95.07;48.05;;;;;;;7.62;95.07;100219.28;5012296;28;20570;-66
2022/12/06 01:03:18;;;;;;;97.88;50.58;;;;;;;7.56;94.70;100220.44;5014149;28;20642;-67
2022/12/06 01:05:48;;;;;;;94.38;49.50;;;;;;;7.65;95.24;100224.25;5031351;28;20074;-66
2022/12/06 01:08:15;;;;;;;97.18;48.80;;;;;;;7.66;94.68;100214.75;5013860;28;20389;-66
2022/12/06 01:10:41;;;;;;;89.68;49.25;;;;;;;7.73;94.45;100217.19;5032197;28;20036;-66
2022/12/06 01:13:07;;;;;;;94.95;48.97;;;;;;;7.76;94.25;100211.00;5011954;28;20037;-67
2022/12/06 01:15:36;;;;;;;95.25;48.58;;;;;;;7.78;94.23;100205.16;5013874;28;20052;-66
2022/12/06 01:18:03;;;;;;;89.68;46.85;;;;;;;7.71;94.10;100203.53;5030862;28;20028;-65
2022/12/06 01:20:29;;;;;;;101.55;47.38;;;;;;;7.58;94.65;100209.84;5031879;28;20033;-67
2022/12/06 01:22:54;;;;;;;102.47;48.25;;;;;;;7.21;96.66;100209.41;5030322;28;20048;-66
2022/12/06 01:25:20;;;;;;;91.07;46.17;;;;;;;7.20;96.64;100207.75;5026219;28;20492;-66
2022/12/06 01:27:46;;;;;;;89.38;46.92;;;;;;;7.18;97.18;100198.03;5010032;28;20052;-68
2022/12/06 01:30:11;;;;;;;107.72;48.42;;;;;;;7.09;97.71;100201.47;5031881;28;20112;-66
2022/12/06 01:32:37;;;;;;;92.00;48.78;;;;;;;7.27;97.36;100199.88;5030107;28;20029;-66
2022/12/06 01:35:02;;;;;;;94.72;46.92;;;;;;;7.05;98.06;100197.63;5031511;28;20029;-66
2022/12/06 01:37:28;;;;;;;94.00;46.33;;;;;;;7.04;98.78;100204.31;5031837;28;20175;-66
2022/12/06 01:39:53;;;;;;;81.93;42.25;;;;;;;7.14;98.99;100203.38;5014001;28;20503;-66
2022/12/06 01:42:19;;;;;;;74.63;40.60;;;;;;;7.20;98.32;100202.19;5030390;28;20037;-66
2022/12/06 01:44:44;;;;;;;77.25;39.25;;;;;;;7.30;98.08;100201.25;5031710;28;20025;-65
2022/12/06 01:47:22;;;;;;;81.38;40.92;;;;;;;7.38;97.82;100192.25;5029602;28;20039;-65
2022/12/06 01:50:11;;;;;;;79.60;39.33;;;;;;;7.39;97.47;100193.91;5030853;28;20029;-66
2022/12/06 01:52:55;;;;;;;73.85;38.38;;;;;;;7.39;96.94;100204.22;5031514;28;20056;-65
2022/12/06 01:55:24;;;;;;;73.75;38.03;;;;;;;7.18;97.77;100196.09;5030228;28;20028;-66
2022/12/06 01:57:53;;;;;;;75.03;38.58;;;;;;;7.02;98.63;100190.69;5013372;28;20036;-66
2022/12/06 02:00:18;;;;;;;76.05;38.33;;;;;;;6.88;99.06;100173.88;5013322;28;20068;-66
2022/12/06 02:02:44;;;;;;;75.78;35.13;;;;;;;6.70;100.00;100191.25;5013654;28;20053;-66
2022/12/06 02:05:11;;;;;;;67.05;31.98;;;;;;;6.71;100.00;100192.91;5010880;28;20079;-66
2022/12/06 02:07:38;;;;;;;61.58;31.88;;;;;;;6.87;100.00;100179.72;5030811;28;20025;-66
2022/12/06 02:10:04;;;;;;;59.90;30.80;;;;;;;6.85;100.00;100196.69;5030337;28;20033;-66
2022/12/06 02:12:29;;;;;;;61.33;30.27;;;;;;;6.66;100.00;100193.78;5031098;28;20025;-66
2022/12/06 02:14:55;;;;;;;65.75;33.05;;;;;;;6.68;100.00;100188.75;5030901;28;20389;-66
2022/12/06 02:17:59;;;;;;;57.38;30.08;;;;;;;6.65;100.00;100185.75;5031041;28;20468;-66
2022/12/06 02:21:00;;;;;;;49.90;28.83;;;;;;;6.45;100.00;100182.00;5031055;28;20033;-66
2022/12/06 02:24:10;;;;;;;63.15;29.23;;;;;;;6.36;100.00;100189.31;5010814;28;20042;-66
2022/12/06 02:26:44;;;;;;;59.08;30.23;;;;;;;6.34;100.00;100186.84;5031030;28;20048;-66
2022/12/06 02:29:40;;;;;;;59.53;31.25;;;;;;;6.32;100.00;100189.88;5013259;28;20120;-66
2022/12/06 02:32:32;;;;;;;60.75;32.08;;;;;;;6.15;100.00;100186.66;5030816;28;20385;-66
2022/12/06 02:35:18;;;;;;;58.33;29.38;;;;;;;6.08;100.00;100186.16;4973727;28;20049;-67
2022/12/06 02:38:15;;;;;;;65.20;30.00;;;;;;;5.87;100.00;100183.47;5025189;28;20091;-66
2022/12/06 02:40:54;;;;;;;69.40;34.22;;;;;;;5.73;100.00;100184.09;5026902;28;20547;-65
2022/12/06 02:43:27;;;;;;;79.72;39.35;;;;;;;5.62;100.00;100176.94;5029502;28;20025;-66
2022/12/06 02:45:56;;;;;;;86.15;41.42;;;;;;;5.55;100.00;100171.69;5012958;28;20032;-65
2022/12/06 02:48:24;;;;;;;92.93;45.17;;;;;;;5.47;100.00;100166.72;5030615;28;20061;-66
2022/12/06 02:50:55;;;;;;;82.80;44.08;;;;;;;5.55;100.00;100176.38;5010881;28;20416;-66
2022/12/06 02:53:25;;;;;;;92.85;46.03;;;;;;;5.50;100.00;100174.50;5030561;28;20021;-66
2022/12/06 02:55:51;;;;;;;96.03;45.83;;;;;;;5.64;100.00;100174.69;5013049;28;20382;-67
2022/12/06 02:58:16;;;;;;;91.10;43.85;;;;;;;5.73;100.00;100178.53;5030660;28;20481;-65
2022/12/06 03:00:48;;;;;;;89.25;45.00;;;;;;;5.77;100.00;100184.34;5029229;28;20029;-65
2022/12/06 03:03:42;;;;;;;90.22;43.13;;;;;;;5.84;100.00;100179.31;5012798;28;20057;-65
2022/12/06 03:06:17;;;;;;;92.93;43.45;;;;;;;5.79;100.00;100179.34;5029596;28;20485;-65
2022/12/06 03:08:58;;;;;;;79.60;41.08;;;;;;;6.01;100.00;100187.28;5029446;28;20025;-65
2022/12/06 03:11:44;;;;;;;108.72;44.22;;;;;;;5.94;100.00;100183.16;5012820;28;20030;-66
2022/12/06 03:14:17;;;;;;;101.13;47.75;;;;;;;5.79;100.00;100175.72;5013151;28;20480;-65
2022/12/06 03:17:01;;;;;;;94.90;44.85;;;;;;;5.89;100.00;100179.28;5030195;28;20029;-67
2022/12/06 03:19:28;;;;;;;89.30;43.33;;;;;;;5.83;100.00;100176.84;5029419;28;20443;-65
2022/12/06 03:22:01;;;;;;;86.72;45.78;;;;;;;5.87;100.00;100167.66;5011780;28;20026;-66
2022/12/06 03:24:32;;;;;;;89.45;43.22;;;;;;;5.93;100.00;100176.78;5030295;28;20163;-65
2022/12/06 03:27:00;;;;;;;98.65;48.00;;;;;;;5.72;100.00;100173.25;5030182;28;20047;-65
2022/12/06 03:29:29;;;;;;;95.18;48.65;;;;;;;5.79;100.00;100170.19;5025875;28;20037;-67
2022/12/06 03:31:58;;;;;;;103.70;49.47;;;;;;;5.75;100.00;100170.75;5025357;28;20053;-66
2022/12/06 03:34:35;;;;;;;108.50;52.72;;;;;;;5.79;100.00;100171.03;5028109;28;20037;-66
2022/12/06 03:37:02;;;;;;;104.57;53.47;;;;;;;5.83;100.00;100172.09;5030214;28;20032;-66
2022/12/06 03:39:36;;;;;;;122.65;59.22;;;;;;;5.81;100.00;100163.22;5012503;28;20488;-65
2022/12/06 03:42:02;;;;;;;119.78;63.05;;;;;;;5.87;100.00;100164.03;5033535;28;20407;-65
2022/12/06 03:44:27;;;;;;;128.30;64.93;;;;;;;5.65;100.00;100164.44;5033877;28;20021;-66
2022/12/06 03:47:00;;;;;;;130.23;64.15;;;;;;;5.75;100.00;100162.44;5033392;28;20392;-66
2022/12/06 03:49:51;;;;;;;137.40;71.53;;;;;;;5.85;100.00;100164.34;5013904;28;20558;-67
2022/12/06 03:52:16;;;;;;;133.32;66.65;;;;;;;5.98;100.00;100160.06;5033671;28;20108;-65
2022/12/06 03:54:41;;;;;;;130.68;66.75;;;;;;;6.00;100.00;100159.81;5032393;28;20025;-66
2022/12/06 03:57:08;;;;;;;128.35;67.13;;;;;;;6.12;100.00;100163.09;5033438;28;20029;-66
2022/12/06 03:59:34;;;;;;;131.73;64.72;;;;;;;6.33;100.00;100154.59;5015386;28;20032;-66
2022/12/06 04:02:00;;;;;;;133.98;66.78;;;;;;;6.32;100.00;100156.53;5033559;28;20025;-67
2022/12/06 04:04:25;;;;;;;130.10;65.25;;;;;;;6.07;100.00;100153.97;5017026;28;20024;-66
2022/12/06 04:06:51;;;;;;;134.63;70.22;;;;;;;6.00;100.00;100148.69;5026650;28;20400;-66
2022/12/06 04:12:01;;;;;;;124.32;65.95;;;;;;;6.15;100.00;100170.00;5033733;28;20507;-65
2022/12/06 04:14:31;;;;;;;125.47;66.28;;;;;;;6.12;100.00;100157.53;5032815;28;20022;-65
2022/12/06 04:19:43;;;;;;;114.70;57.72;;;;;;;6.16;100.00;100157.78;5031691;28;20040;-66
2022/12/06 04:24:53;;;;;;;111.88;57.78;;;;;;;6.08;100.00;100161.97;5031390;28;20036;-67
2022/12/06 04:40:58;;;;;;;93.18;51.85;;;;;;;6.25;100.00;100161.59;5012925;28;20620;-66
2022/12/06 04:43:42;;;;;;;100.95;50.83;;;;;;;6.14;100.00;100160.84;5013077;28;20101;-66
2022/12/06 04:46:13;;;;;;;96.03;49.22;;;;;;;6.22;100.00;100162.16;5012926;28;20481;-65
2022/12/06 04:48:39;;;;;;;90.97;48.22;;;;;;;6.08;100.00;100161.16;5024539;28;20085;-66
2022/12/06 04:51:05;;;;;;;90.15;46.85;;;;;;;6.03;100.00;100159.25;5030651;28;20485;-66
2022/12/06 04:53:30;;;;;;;92.60;48.63;;;;;;;6.24;100.00;100162.72;5031033;28;20087;-66
2022/12/06 04:55:56;;;;;;;91.45;50.33;;;;;;;6.28;100.00;100149.91;5032565;28;20021;-66
2022/12/06 04:58:22;;;;;;;95.40;50.65;;;;;;;6.27;100.00;100148.22;5032385;28;20523;-67
2022/12/06 05:00:53;;;;;;;89.43;49.22;;;;;;;6.48;100.00;100153.63;5032556;28;20041;-65
2022/12/06 05:03:18;;;;;;;106.13;53.80;;;;;;;6.50;100.00;100151.38;5012668;28;20472;-66
2022/12/06 05:05:44;;;;;;;96.35;53.88;;;;;;;6.52;100.00;100153.88;5011870;28;20021;-66
2022/12/06 05:08:09;;;;;;;95.45;52.00;;;;;;;6.62;100.00;100151.03;5031164;28;20075;-65
2022/12/06 05:10:35;;;;;;;92.85;54.28;;;;;;;6.79;100.00;100147.81;5032286;28;20036;-66
2022/12/06 05:13:01;;;;;;;97.13;53.50;;;;;;;6.94;100.00;100146.00;5004196;28;20489;-65
2022/12/06 05:15:28;;;;;;;104.13;50.15;;;;;;;6.98;100.00;100147.91;5022436;28;20036;-67
2022/12/06 05:17:54;;;;;;;77.57;43.22;;;;;;;7.08;100.00;100144.16;5031212;28;20072;-66
2022/12/06 05:20:19;;;;;;;81.50;44.20;;;;;;;7.14;99.96;100161.63;5031586;28;20460;-66
2022/12/06 05:22:45;;;;;;;84.38;45.47;;;;;;;7.12;99.72;100150.81;5031628;28;20025;-66
2022/12/06 05:25:11;;;;;;;81.80;44.53;;;;;;;7.07;99.62;100153.63;5014051;28;20025;-66
2022/12/06 05:27:37;;;;;;;79.25;44.15;;;;;;;7.08;99.27;100158.06;5030612;28;20079;-66
2022/12/06 05:30:04;;;;;;;82.97;43.17;;;;;;;6.95;98.98;100148.50;5031293;28;20480;-66
2022/12/06 05:32:30;;;;;;;83.43;44.78;;;;;;;7.09;99.23;100154.16;5007855;28;20523;-66
2022/12/06 05:34:55;;;;;;;79.68;44.03;;;;;;;7.21;98.96;100158.50;5030206;28;20060;-66
2022/12/06 05:37:21;;;;;;;75.05;41.22;;;;;;;7.23;98.58;100150.69;5030632;28;20033;-66
2022/12/06 05:39:46;;;;;;;84.68;43.92;;;;;;;7.31;98.12;100152.81;5012378;28;20095;-67
2022/12/06 05:42:11;;;;;;;80.20;42.55;;;;;;;7.36;97.85;100157.50;5011429;28;20103;-67
2022/12/06 05:44:37;;;;;;;93.75;48.53;;;;;;;7.33;97.21;100147.78;5030263;28;20033;-66
2022/12/06 05:47:02;;;;;;;97.72;47.90;;;;;;;7.40;97.50;100155.75;5030555;28;20420;-66
2022/12/06 05:49:28;;;;;;;91.00;48.25;;;;;;;7.38;97.21;100149.66;5031317;28;20124;-65
2022/12/06 05:51:53;;;;;;;94.72;47.88;;;;;;;7.32;97.43;100146.13;5008949;28;20515;-66
2022/12/06 05:54:19;;;;;;;107.85;50.72;;;;;;;7.29;97.00;100147.53;5028876;28;20496;-68
2022/12/06 05:56:45;;;;;;;102.00;50.55;;;;;;;7.26;97.70;100144.53;5035113;28;20546;-66
2022/12/06 05:59:10;;;;;;;90.93;47.53;;;;;;;7.27;97.32;100144.22;5030053;28;20041;-66
2022/12/06 06:01:35;;;;;;;92.15;47.38;;;;;;;7.13;97.91;100146.06;5010994;28;20124;-66
2022/12/06 06:04:01;;;;;;;101.88;50.00;;;;;;;7.22;98.30;100137.88;5028375;28;20116;-66
2022/12/06 06:06:27;;;;;;;96.32;48.05;;;;;;;7.30;97.77;100151.16;5031043;28;20390;-65
2022/12/06 06:08:53;;;;;;;103.57;50.88;;;;;;;7.24;97.92;100141.19;5028016;28;20025;-67
2022/12/06 06:11:19;;;;;;;111.00;55.22;;;;;;;7.32;98.09;100153.66;5027675;28;20033;-66
2022/12/06 06:13:45;;;;;;;403.73;226.10;;;;;;;7.38;97.63;100153.31;5026796;28;20124;-66
2022/12/06 06:16:10;;;;;;;109.25;57.20;;;;;;;7.32;97.23;100146.13;5028958;28;20036;-67
2022/12/06 06:18:35;;;;;;;106.15;55.00;;;;;;;7.36;97.51;100150.00;5029269;28;20029;-66
2022/12/06 06:21:02;;;;;;;99.18;48.60;;;;;;;7.35;96.99;100145.53;5030941;28;20568;-66
2022/12/06 06:23:28;;;;;;;94.07;48.42;;;;;;;7.35;97.11;100145.53;5029434;28;20091;-66
2022/12/06 06:25:54;;;;;;;110.15;54.30;;;;;;;7.41;96.99;100149.06;5030990;28;20104;-67
2022/12/06 06:28:19;;;;;;;103.65;54.25;;;;;;;7.30;97.27;100146.44;5031081;28;20033;-65
2022/12/06 06:30:45;;;;;;;110.18;51.50;;;;;;;7.39;97.39;100154.09;5027394;28;20110;-66
2022/12/06 06:33:11;;;;;;;117.28;63.05;;;;;;;7.42;97.61;100159.06;5025025;28;20194;-66
2022/12/06 06:35:38;;;;;;;112.25;58.70;;;;;;;7.37;97.16;100160.00;5006385;28;20067;-66
2022/12/06 06:38:03;;;;;;;120.78;69.72;;;;;;;7.28;97.89;100147.84;5030297;28;20116;-66
2022/12/06 06:40:29;;;;;;;94.55;48.13;;;;;;;7.31;97.91;100147.25;5008096;28;20116;-65
2022/12/06 06:42:55;;;;;;;105.75;54.38;;;;;;;7.41;97.90;100154.63;5012791;28;20045;-66
2022/12/06 06:45:20;;;;;;;96.13;52.17;;;;;;;7.29;97.19;100152.28;5029479;28;20404;-64
2022/12/06 06:47:46;;;;;;;96.30;49.50;;;;;;;7.39;97.04;100159.69;5029030;28;20042;-65
2022/12/06 06:50:11;;;;;;;90.82;48.88;;;;;;;7.47;97.24;100159.03;5021842;28;20029;-69
2022/12/06 06:52:37;;;;;;;91.70;50.78;;;;;;;7.40;97.03;100156.59;5003711;28;20079;-68
2022/12/06 06:55:03;;;;;;;93.82;48.03;;;;;;;7.47;96.98;100159.03;5009432;28;20041;-66
2022/12/06 06:57:28;;;;;;;98.28;53.70;;;;;;;7.53;96.62;100157.00;5029124;28;20125;-65
2022/12/06 06:59:55;;;;;;;96.70;46.30;;;;;;;7.51;96.79;100151.72;5028159;28;20025;-66
2022/12/06 07:02:20;;;;;;;81.57;44.15;;;;;;;7.47;96.44;100155.41;5025518;28;20069;-67
2022/12/06 07:04:46;;;;;;;89.18;44.88;;;;;;;7.49;96.35;100142.03;5018777;28;20503;-65
2022/12/06 07:07:12;;;;;;;86.93;44.45;;;;;;;7.49;96.33;100142.03;5000579;28;20038;-67
2022/12/06 07:09:38;;;;;;;83.30;42.40;;;;;;;7.53;96.39;100146.69;5001999;28;20041;-69
2022/12/06 07:12:04;;;;;;;78.68;41.47;;;;;;;7.54;96.31;100141.97;5013874;28;20063;-67
2022/12/06 07:14:29;;;;;;;84.03;41.92;;;;;;;7.54;96.65;100144.75;5007506;28;20031;-68
2022/12/06 07:16:55;;;;;;;89.32;42.63;;;;;;;7.59;96.39;100148.28;5025776;28;20030;-66
2022/12/06 07:19:20;;;;;;;89.97;46.15;;;;;;;7.63;96.18;100139.34;5026837;28;20519;-69
2022/12/06 07:21:46;;;;;;;116.63;61.35;;;;;;;7.67;96.18;100148.78;5026735;28;20029;-66
2022/12/06 07:24:11;;;;;;;93.22;46.25;;;;;;;7.72;95.67;100146.75;5029414;28;20481;-70
2022/12/06 07:26:37;;;;;;;85.78;46.40;;;;;;;7.65;95.23;100139.88;5010803;28;20036;-69
2022/12/06 07:29:02;;;;;;;102.05;55.47;;;;;;;7.80;95.33;100145.25;5014075;28;20433;-66
2022/12/06 07:31:29;;;;;;;248.40;146.07;;;;;;;7.77;94.85;100143.03;5013887;28;20095;-65
2022/12/06 07:33:57;;;;;;;96.95;46.92;;;;;;;7.77;95.04;100151.38;5009351;28;20033;-65
2022/12/06 07:36:23;;;;;;;90.82;41.30;;;;;;;7.83;94.09;100146.56;5021488;28;20103;-67
2022/12/06 07:38:52;;;;;;;98.20;46.65;;;;;;;7.90;94.08;100137.84;5027515;28;20049;-67
2022/12/06 07:46:49;;;;;;;85.55;43.83;;;;;;;7.93;93.05;100140.88;5031244;28;20087;-67
2022/12/06 07:49:16;;;;;;;86.05;44.08;;;;;;;7.93;93.49;100143.66;5029812;28;20057;-67
2022/12/06 07:51:43;;;;;;;95.63;49.20;;;;;;;8.05;93.36;100139.59;5021602;28;20463;-68
2022/12/06 07:54:08;;;;;;;87.72;46.72;;;;;;;8.14;91.99;100137.78;5022848;28;20034;-68
2022/12/06 07:56:34;;;;;;;89.60;46.50;;;;;;;7.92;92.48;100146.75;5006843;28;20061;-67
2022/12/06 07:59:00;;;;;;;98.43;45.00;;;;;;;8.05;93.36;100145.16;5007200;28;20033;-67
2022/12/06 08:01:25;;;;;;;92.53;47.25;;;;;;;7.97;92.86;100144.72;5020463;28;20099;-66
2022/12/06 08:03:52;;;;;;;82.80;44.63;;;;;;;7.98;92.66;100135.25;5026904;28;20033;-66
2022/12/06 08:06:17;;;;;;;83.70;44.58;;;;;;;8.01;93.38;100137.41;5009720;28;20044;-69
2022/12/06 08:08:43;;;;;;;83.30;39.30;;;;;;;8.01;92.83;100134.63;5026470;28;20037;-67
2022/12/06 08:11:08;;;;;;;88.80;46.38;;;;;;;8.15;92.52;100129.13;5030486;28;20540;-67
2022/12/06 08:13:35;;;;;;;91.65;45.90;;;;;;;8.26;91.62;100138.16;5028323;28;20044;-70
2022/12/06 08:16:06;;;;;;;88.50;43.38;;;;;;;8.32;90.80;100124.97;5024346;28;20033;-69
2022/12/06 08:18:31;;;;;;;;;;;;;;;8.48;91.36;100127.47;5020759;28;20083;-68
2022/12/06 08:20:58;;;;;;;120.45;67.75;;;;;;;8.63;90.32;100123.63;5009736;28;20383;-70
2022/12/06 08:23:23;;;;;;;128.45;78.18;;;;;;;8.46;90.29;100119.44;5023574;28;20615;-67
2022/12/06 08:25:59;;;;;;;126.38;73.72;;;;;;;8.41;89.11;100119.50;5012511;28;20065;-67
2022/12/06 08:28:26;;;;;;;87.30;47.42;;;;;;;8.58;89.28;100127.34;5029946;28;20488;-66
2022/12/06 08:30:52;;;;;;;86.75;43.42;;;;;;;8.72;88.11;100121.81;5024021;28;20061;-68
2022/12/06 08:33:17;;;;;;;80.90;44.45;;;;;;;8.61;88.23;100121.16;5006695;28;20457;-67
2022/12/06 08:35:43;;;;;;;88.75;42.17;;;;;;;8.62;88.99;100113.63;5003415;28;20025;-70
2022/12/06 08:38:08;;;;;;;87.68;44.42;;;;;;;8.78;88.37;100114.19;5027272;28;20030;-67
2022/12/06 08:40:34;;;;;;;76.05;41.33;;;;;;;8.77;87.35;100107.75;5013085;28;20037;-67
2022/12/06 08:42:59;;;;;;;81.15;43.00;;;;;;;9.11;87.06;100106.56;5028449;28;20025;-67
2022/12/06 08:45:25;;;;;;;83.75;42.00;;;;;;;9.03;85.04;100087.72;5027558;28;20110;-68
2022/12/06 08:47:50;;;;;;;82.00;45.22;;;;;;;9.19;84.82;100098.59;5004235;28;20054;-70
2022/12/06 08:50:16;;;;;;;89.30;45.05;;;;;;;9.36;84.49;100107.16;5020485;28;20394;-70
2022/12/06 08:52:41;;;;;;;79.28;42.75;;;;;;;9.30;84.76;100102.00;5025414;28;20124;-67
2022/12/06 08:55:07;;;;;;;80.78;44.20;;;;;;;9.04;85.49;100097.75;5027866;28;20037;-70
2022/12/06 08:57:32;;;;;;;84.35;43.78;;;;;;;9.11;85.80;100102.91;5029757;28;20030;-69
2022/12/06 08:59:58;;;;;;;76.20;39.92;;;;;;;9.07;83.96;100102.75;5012122;28;20037;-70
2022/12/06 09:02:23;;;;;;;77.63;39.88;;;;;;;9.16;83.21;100096.41;5024095;28;20029;-70
2022/12/06 09:04:50;;;;;;;80.82;38.92;;;;;;;9.46;82.09;100088.56;5020210;28;20467;-69
2022/12/06 09:07:16;;;;;;;71.65;35.58;;;;;;;9.60;79.39;100089.34;5003029;28;20071;-69
2022/12/06 09:09:41;;;;;;;65.35;32.95;;;;;;;9.75;77.79;100081.75;5019440;28;20119;-67
2022/12/06 09:12:07;;;;;;;60.25;28.58;;;;;;;9.64;76.84;100086.75;5017359;28;20037;-66
2022/12/06 09:14:32;;;;;;;69.25;35.63;;;;;;;9.65;76.52;100068.84;5026377;28;20040;-69
2022/12/06 09:16:58;;;;;;;64.53;34.50;;;;;;;9.78;76.20;100083.94;5023332;28;20040;-68
2022/12/06 09:19:23;;;;;;;82.95;40.60;;;;;;;9.65;77.96;100074.44;5022015;28;20025;-69
2022/12/06 09:21:49;;;;;;;77.95;37.15;;;;;;;9.76;78.43;100075.03;5009552;28;20037;-69
2022/12/06 09:24:16;;;;;;;79.32;39.53;;;;;;;10.03;77.18;100059.31;5037907;28;20115;-68
2022/12/06 09:26:42;;;;;;;66.07;33.25;;;;;;;9.74;75.59;100060.56;5008166;28;20044;-68
2022/12/06 09:29:09;;;;;;;79.38;34.72;;;;;;;9.83;75.55;100061.47;5023374;28;20037;-69
2022/12/06 09:31:38;;;;;;;72.50;32.35;;;;;;;9.86;76.27;100058.03;5025331;28;20120;-67
2022/12/06 09:34:06;;;;;;;69.15;32.38;;;;;;;10.01;74.64;100053.19;5007611;28;20044;-70
2022/12/06 09:36:32;;;;;;;74.68;35.08;;;;;;;9.75;75.40;100051.03;5021897;28;20523;-70
2022/12/06 09:39:07;;;;;;;79.63;38.70;;;;;;;9.77;76.38;100044.00;5009465;28;20029;-69
2022/12/06 09:42:00;;;;;;;85.40;44.00;;;;;;;9.88;76.43;100044.56;5023976;28;20129;-70
2022/12/06 09:44:47;;;;;;;73.18;35.78;;;;;;;9.73;77.45;100037.41;5002237;28;20031;-69
2022/12/06 09:48:01;;;;;;;80.22;41.83;;;;;;;9.87;77.89;100034.53;5004879;28;20050;-69
2022/12/06 09:51:04;;;;;;;182.90;89.95;;;;;;;10.06;77.23;100027.94;4923724;29;20640;-67
2022/12/06 09:53:47;;;;;;;76.45;38.95;;;;;;;10.10;77.29;100018.59;5017677;28;20091;-69
2022/12/06 09:56:37;;;;;;;66.05;34.28;;;;;;;9.90;75.65;100014.34;5028672;28;20040;-69
2022/12/06 09:59:27;;;;;;;75.90;35.05;;;;;;;9.90;76.13;100003.19;5032929;28;20029;-68
2022/12/06 10:02:33;;;;;;;60.83;29.97;;;;;;;9.76;76.18;99997.66;5032624;28;20040;-70
2022/12/06 10:05:32;;;;;;;70.32;31.70;;;;;;;9.85;76.52;99996.91;5020924;28;20116;-69
2022/12/06 10:08:32;;;;;;;65.75;32.45;;;;;;;9.90;76.36;99996.75;5025865;28;20091;-68
2022/12/06 10:11:07;;;;;;;70.38;31.15;;;;;;;9.67;76.40;99992.00;5021684;28;20029;-69
2022/12/06 10:13:45;;;;;;;63.42;34.08;;;;;;;9.67;76.76;99980.81;5007787;28;20041;-69
2022/12/06 10:16:35;;;;;;;66.82;30.00;;;;;;;9.85;76.02;99971.75;5026553;28;20038;-70
2022/12/06 10:19:45;;;;;;;75.53;30.23;;;;;;;9.89;75.07;99967.97;5028428;28;20025;-71
2022/12/06 10:22:34;;;;;;;59.92;27.90;;;;;;;9.88;75.17;99959.94;5020937;28;20084;-69
2022/12/06 10:25:16;;;;;;;65.55;29.90;;;;;;;10.10;75.02;99956.28;5030542;28;20029;-67
2022/12/06 10:27:57;;;;;;;46.38;24.23;;;;;;;10.14;73.04;99953.66;5023632;28;20057;-68
2022/12/06 10:30:23;;;;;;;41.78;20.42;;;;;;;9.99;71.25;99950.13;5023618;28;20056;-67
2022/12/06 10:33:30;;;;;;;36.95;19.80;;;;;;;9.91;72.27;99940.56;5007834;28;20033;-68
2022/12/06 10:36:00;;;;;;;40.65;19.30;;;;;;;9.97;71.36;99939.28;5014914;28;20037;-67
2022/12/06 10:38:37;;;;;;;49.05;24.23;;;;;;;9.92;72.39;99933.00;5012038;28;20056;-68
2022/12/06 10:41:20;;;;;;;40.80;21.55;;;;;;;9.92;72.35;99927.41;5010511;28;20033;-68
2022/12/06 10:43:45;;;;;;;157.77;62.53;;;;;;;9.72;76.68;99925.97;5022067;28;20033;-67
2022/12/06 10:49:22;;;;;;;77.28;36.58;;;;;;;9.41;77.52;99924.75;5023246;28;20607;-67
2022/12/06 10:51:56;;;;;;;110.80;53.75;;;;;;;9.48;78.07;99929.91;5029219;28;20033;-68
2022/12/06 10:54:37;;;;;;;87.22;41.10;;;;;;;9.59;77.91;99928.50;5025976;28;20041;-67
2022/12/06 10:57:10;;;;;;;185.13;69.63;;;;;;;9.51;78.26;99918.09;4995976;28;20560;-69
2022/12/06 10:59:47;;;;;;;91.90;37.63;;;;;;;9.55;77.50;99914.34;5011931;28;20071;-68
2022/12/06 11:03:10;;;;;;;74.03;32.15;;;;;;;9.67;75.85;99907.34;5008708;28;20029;-67
2022/12/06 11:05:56;;;;;;;67.82;33.35;;;;;;;9.82;75.75;99892.97;4928532;29;20535;-67
2022/12/06 11:08:35;;;;;;;94.80;39.08;;;;;;;10.04;74.38;99901.69;4913200;29;20432;-70
2022/12/06 11:11:04;;;;;;;171.35;64.90;;;;;;;10.01;75.66;99900.34;4995598;28;20034;-70
2022/12/06 11:13:39;;;;;;;132.63;51.85;;;;;;;10.07;75.84;99896.25;5030190;28;20025;-66
2022/12/06 11:16:09;;;;;;;93.82;44.72;;;;;;;10.04;75.61;99896.88;5011931;28;20025;-68
2022/12/06 11:18:35;;;;;;;63.08;31.63;;;;;;;9.94;74.30;99885.97;5013990;28;20052;-68
2022/12/06 11:21:12;;;;;;;57.55;28.70;;;;;;;10.11;73.80;99885.25;5009130;28;20127;-68
2022/12/06 11:23:46;;;;;;;256.80;44.65;;;;;;;10.22;74.21;99886.63;5012929;28;20037;-71
2022/12/06 11:26:19;;;;;;;81.53;31.83;;;;;;;10.22;73.74;99885.81;5030373;28;20018;-69
2022/12/06 11:28:54;;;;;;;60.10;29.00;;;;;;;10.22;72.80;99872.63;5027974;28;20428;-69
2022/12/06 11:31:30;;;;;;;52.83;24.95;;;;;;;9.72;72.75;99873.72;5031343;28;20033;-70
2022/12/06 11:33:56;;;;;;;56.97;25.70;;;;;;;9.61;74.10;99875.94;5010801;28;20025;-69
2022/12/06 11:36:24;;;;;;;55.90;28.63;;;;;;;9.82;73.24;99872.63;5024838;28;20076;-70
2022/12/06 11:38:50;;;;;;;52.35;25.73;;;;;;;9.82;73.63;99869.81;5029886;28;20025;-74
2022/12/06 11:41:25;;;;;;;54.92;26.05;;;;;;;9.80;74.10;99870.13;5025802;28;20033;-67
2022/12/06 11:43:52;;;;;;;59.15;27.40;;;;;;;9.81;74.48;99871.78;5011684;28;20045;-68
2022/12/06 11:46:19;;;;;;;58.72;30.88;;;;;;;9.93;73.59;99871.19;5004336;28;20697;-67
2022/12/06 11:48:45;;;;;;;60.55;28.58;;;;;;;10.01;73.81;99869.59;5011238;28;20524;-66
2022/12/06 11:51:23;;;;;;;58.13;27.58;;;;;;;10.01;73.78;99863.16;5015863;28;20029;-67
2022/12/06 11:54:17;;;;;;;65.00;31.75;;;;;;;10.00;73.79;99861.53;5007982;28;20025;-68
2022/12/06 11:56:43;;;;;;;56.58;29.65;;;;;;;9.89;73.59;99855.41;5032328;28;20030;-68
2022/12/06 11:59:30;;;;;;;61.05;28.20;;;;;;;9.93;74.16;99857.22;5033283;28;20034;-71
2022/12/06 12:02:02;;;;;;;55.58;26.75;;;;;;;9.65;74.75;99843.47;5012356;28;20484;-71